createdAt,value
2023-05-16T00:02:08.175Z,56.20
2023-05-16T00:07:17.589Z,56.30
2023-05-16T00:12:26.164Z,56.20
2023-05-16T00:17:35.520Z,56.90
2023-05-16T00:22:44.131Z,55.90
2023-05-16T00:27:52.890Z,56.10
2023-05-16T00:33:01.299Z,56.00
2023-05-16T00:38:09.812Z,55.60
2023-05-16T00:43:18.238Z,55.50
2023-05-16T00:48:27.140Z,55.50
2023-05-16T00:53:35.404Z,55.80
2023-05-16T00:58:44.514Z,55.40
2023-05-16T01:03:53.300Z,55.40
2023-05-16T01:09:01.791Z,56.40
2023-05-16T01:14:10.391Z,55.70
2023-05-16T01:19:19.968Z,56.30
2023-05-16T01:24:28.817Z,55.80
2023-05-16T01:29:37.539Z,56.10
2023-05-16T01:34:46.039Z,55.90
2023-05-16T01:39:55.201Z,55.70
2023-05-16T01:45:03.866Z,55.70
2023-05-16T01:50:12.878Z,55.90
2023-05-16T01:55:21.693Z,55.80
2023-05-16T02:00:30.745Z,55.00
2023-05-16T02:05:42.142Z,55.00
2023-05-16T02:10:41.030Z,55.30
2023-05-16T02:15:49.822Z,55.80
2023-05-16T02:20:58.770Z,55.50
2023-05-16T02:26:07.449Z,54.90
2023-05-16T02:31:16.070Z,55.90
2023-05-16T02:36:24.524Z,55.60
2023-05-16T02:41:33.325Z,55.70
2023-05-16T02:46:42.028Z,56.20
2023-05-16T02:51:50.562Z,56.20
2023-05-16T02:56:59.411Z,56.20
2023-05-16T03:02:08.923Z,55.60
2023-05-16T03:07:17.308Z,55.60
2023-05-16T03:12:26.117Z,55.40
2023-05-16T03:17:35.375Z,55.60
2023-05-16T03:22:44.254Z,54.30
2023-05-16T03:27:52.452Z,54.80
2023-05-16T03:33:01.546Z,54.70
2023-05-16T03:38:10.006Z,54.20
2023-05-16T03:43:19.088Z,54.00
2023-05-16T03:48:27.853Z,54.70
2023-05-16T03:53:36.845Z,53.40
2023-05-16T03:58:45.098Z,54.40
2023-05-16T04:03:54.149Z,54.40
2023-05-16T04:09:02.794Z,53.20
2023-05-16T04:14:11.566Z,54.00
2023-05-16T04:19:21.224Z,53.80
2023-05-16T04:24:30.660Z,53.80
2023-05-16T04:29:39.028Z,53.50
2023-05-16T04:34:48.223Z,54.60
2023-05-16T04:39:57.595Z,52.90
2023-05-16T04:45:06.378Z,54.30
2023-05-16T04:50:14.964Z,54.30
2023-05-16T04:55:23.739Z,54.00
2023-05-16T05:00:33.001Z,53.50
2023-05-16T05:05:42.309Z,53.50
2023-05-16T05:10:50.957Z,54.30
2023-05-16T05:15:59.852Z,53.20
2023-05-16T05:21:08.342Z,52.90
2023-05-16T05:26:17.439Z,52.60
2023-05-16T05:36:35.299Z,53.40
2023-05-16T06:07:22.296Z,53.70
2023-05-16T06:12:30.898Z,54.30
2023-05-16T06:17:40.378Z,53.10
2023-05-16T06:27:58.278Z,54.40
2023-05-16T06:33:06.684Z,54.20
2023-05-16T06:38:15.606Z,53.30
2023-05-16T06:43:24.106Z,53.60
2023-05-16T06:48:33.307Z,53.00
2023-05-16T06:53:42.229Z,53.50
2023-05-16T06:58:51.579Z,53.00
2023-05-16T07:04:00.447Z,53.80
2023-05-16T07:09:09.130Z,52.00
2023-05-16T07:14:18.502Z,51.90
2023-05-16T07:19:27.613Z,52.40
2023-05-16T07:24:36.170Z,51.50
2023-05-16T07:29:45.534Z,51.70
2023-05-16T07:34:57.490Z,51.20
2023-05-16T07:39:56.375Z,52.70
2023-05-16T07:45:05.159Z,50.90
2023-05-16T07:50:14.331Z,49.70
2023-05-16T07:55:22.982Z,49.40
2023-05-16T08:00:31.930Z,49.10
2023-05-16T08:05:40.733Z,48.90
2023-05-16T08:10:50.043Z,48.00
2023-05-16T08:15:59.045Z,47.80
2023-05-16T08:21:08.542Z,48.00
2023-05-16T08:26:17.500Z,46.50
2023-05-16T08:31:26.868Z,46.80
2023-05-16T08:36:35.470Z,47.00
2023-05-16T08:41:44.429Z,47.90
2023-05-16T08:46:53.328Z,46.70
2023-05-16T08:52:03.027Z,46.10
2023-05-16T08:57:11.624Z,46.30
2023-05-16T09:02:21.198Z,45.80
2023-05-16T09:07:30.033Z,46.30
2023-05-16T09:12:38.856Z,45.80
2023-05-16T09:17:47.739Z,45.60
2023-05-16T09:22:56.307Z,45.40
2023-05-16T09:28:05.049Z,45.60
2023-05-16T09:33:14.152Z,44.20
2023-05-16T09:38:22.881Z,44.50
2023-05-16T09:43:31.916Z,42.10
2023-05-16T09:48:40.799Z,42.10
2023-05-16T09:53:49.860Z,40.00
2023-05-16T09:58:58.934Z,40.60
2023-05-16T10:04:07.912Z,40.20
2023-05-16T10:09:16.665Z,38.40
2023-05-16T10:14:25.733Z,38.70
2023-05-16T10:19:34.762Z,39.70
2023-05-16T10:24:44.057Z,40.90
2023-05-16T10:29:54.968Z,40.40
2023-05-16T10:35:01.978Z,40.80
2023-05-16T10:40:11.597Z,43.30
2023-05-16T10:45:21.455Z,43.10
2023-05-16T10:50:30.240Z,43.60
2023-05-16T10:55:39.193Z,44.20
2023-05-16T11:00:48.058Z,44.30
2023-05-16T11:05:57.245Z,44.50
2023-05-16T11:11:06.122Z,45.00
2023-05-16T11:16:15.717Z,45.00
2023-05-16T11:21:24.684Z,46.10
2023-05-16T11:26:34.144Z,45.10
2023-05-16T11:31:43.032Z,45.00
2023-05-16T11:36:51.900Z,45.00
2023-05-16T11:42:00.636Z,44.70
2023-05-16T11:47:10.465Z,45.10
2023-05-16T11:52:19.069Z,45.80
2023-05-16T11:57:27.986Z,45.90
2023-05-16T12:02:37.633Z,45.10
2023-05-16T12:07:46.801Z,42.50
2023-05-16T12:12:55.509Z,43.10
2023-05-16T12:18:04.815Z,43.30
2023-05-16T12:23:13.597Z,44.10
2023-05-16T12:28:22.677Z,45.20
2023-05-16T12:33:32.722Z,44.30
2023-05-16T12:38:42.226Z,44.20
2023-05-16T12:43:50.965Z,41.80
2023-05-16T12:49:00.104Z,43.60
2023-05-16T12:54:10.453Z,43.10
2023-05-16T12:59:17.724Z,41.80
2023-05-16T13:04:26.457Z,42.60
2023-05-16T13:09:35.185Z,43.00
2023-05-16T13:14:44.094Z,42.60
2023-05-16T13:19:53.724Z,42.40
2023-05-16T13:25:03.519Z,43.30
2023-05-16T13:30:12.602Z,42.80
2023-05-16T13:35:21.818Z,42.30
2023-05-16T13:40:31.156Z,42.80
2023-05-16T13:45:40.103Z,42.60
2023-05-16T13:50:49.498Z,42.40
2023-05-16T13:55:58.300Z,42.50
2023-05-16T14:01:08.025Z,42.20
2023-05-16T14:06:16.972Z,43.00
2023-05-16T14:11:28.864Z,41.70
2023-05-16T14:16:36.523Z,42.90
2023-05-16T14:21:44.757Z,42.60
2023-05-16T14:26:58.377Z,43.30
2023-05-16T14:31:57.417Z,42.70
2023-05-16T14:37:06.730Z,42.40
2023-05-16T14:42:16.101Z,42.20
2023-05-16T14:47:25.007Z,42.80
2023-05-16T14:52:34.020Z,41.50
2023-05-16T14:57:45.219Z,42.70
2023-05-16T15:02:52.559Z,41.30
2023-05-16T15:07:51.691Z,41.20
2023-05-16T15:13:01.567Z,42.30
2023-05-16T15:18:11.268Z,43.00
2023-05-16T15:23:20.761Z,42.60
2023-05-16T15:28:29.692Z,42.30
2023-05-16T15:33:39.668Z,42.60
2023-05-16T15:38:48.182Z,43.30
2023-05-16T15:43:57.819Z,42.90
2023-05-16T15:49:06.768Z,44.00
2023-05-16T15:54:16.249Z,44.00
2023-05-16T15:59:24.953Z,43.30
2023-05-16T16:04:33.951Z,43.60
2023-05-16T16:09:42.645Z,43.80
2023-05-16T16:14:52.113Z,44.60
2023-05-16T16:20:01.254Z,43.90
2023-05-16T16:25:09.956Z,43.60
2023-05-16T16:30:18.662Z,44.70
2023-05-16T16:35:28.627Z,45.30
2023-05-16T16:40:35.948Z,45.00
2023-05-16T16:45:45.354Z,45.90
2023-05-16T16:50:54.160Z,46.10
2023-05-16T16:56:03.039Z,46.30
2023-05-16T17:01:11.899Z,46.60
2023-05-16T17:06:20.976Z,47.10
2023-05-16T17:11:30.071Z,47.70
2023-05-16T17:16:39.214Z,48.90
2023-05-16T17:21:48.494Z,49.20
2023-05-16T17:26:57.689Z,50.80
2023-05-16T17:32:06.485Z,50.70
2023-05-16T17:37:15.426Z,51.10
2023-05-16T17:42:24.420Z,50.10
2023-05-16T17:47:33.259Z,49.50
2023-05-16T17:52:42.340Z,50.60
2023-05-16T17:57:51.335Z,50.30
2023-05-16T18:03:00.337Z,50.90
2023-05-16T18:08:10.223Z,51.50
2023-05-16T18:13:18.844Z,52.50
2023-05-16T18:28:48.156Z,53.40
2023-05-16T18:33:47.156Z,53.70
2023-05-16T18:38:56.583Z,54.40
2023-05-16T18:44:05.557Z,54.50
2023-05-16T18:49:14.680Z,55.00
2023-05-16T18:54:24.458Z,56.10
2023-05-16T18:59:31.887Z,56.50
2023-05-16T19:04:40.756Z,57.60
2023-05-16T19:09:53.159Z,57.90
2023-05-16T19:14:51.801Z,58.60
2023-05-16T19:20:01.854Z,58.80
2023-05-16T19:25:10.050Z,59.60
2023-05-16T19:30:19.164Z,61.20
2023-05-16T19:35:27.719Z,61.80
2023-05-16T19:40:36.273Z,62.30
2023-05-16T19:45:44.553Z,62.00
2023-05-16T19:50:53.797Z,62.60
2023-05-16T19:56:02.573Z,62.90
2023-05-16T20:01:11.185Z,63.70
2023-05-16T20:06:19.862Z,64.20
2023-05-16T20:11:29.241Z,64.30
2023-05-16T20:16:38.451Z,65.80
2023-05-16T20:21:48.154Z,66.50
2023-05-16T20:26:56.895Z,65.90
2023-05-16T20:32:06.217Z,65.90
2023-05-16T20:37:14.963Z,66.60
2023-05-16T20:42:24.346Z,67.20
2023-05-16T20:47:34.031Z,66.40
2023-05-16T20:52:43.079Z,67.10
2023-05-16T20:57:51.476Z,67.20
2023-05-16T21:03:00.751Z,66.50
2023-05-16T21:08:09.565Z,66.10
2023-05-16T21:13:18.474Z,66.20
2023-05-16T21:18:27.473Z,66.80
2023-05-16T21:23:36.558Z,67.10
2023-05-16T21:28:54.464Z,67.50
2023-05-16T21:33:54.212Z,67.20
2023-05-16T21:39:03.011Z,67.50
2023-05-16T21:44:11.926Z,67.80
2023-05-16T21:49:20.643Z,68.30
2023-05-16T21:54:29.773Z,68.40
2023-05-16T21:59:38.389Z,68.40
2023-05-16T22:04:47.272Z,68.50
2023-05-16T22:09:55.742Z,68.50
2023-05-16T22:15:04.718Z,68.90
2023-05-16T22:20:13.295Z,68.60
2023-05-16T22:25:21.883Z,69.20
2023-05-16T22:30:30.686Z,69.90
2023-05-16T22:35:39.619Z,70.20
2023-05-16T22:40:48.427Z,70.80
2023-05-16T22:46:01.455Z,70.80
2023-05-16T22:50:57.172Z,70.80
2023-05-16T22:56:06.296Z,70.80
2023-05-16T23:01:15.059Z,72.00
2023-05-16T23:06:24.076Z,71.60
2023-05-16T23:11:32.912Z,72.50
2023-05-16T23:16:42.115Z,72.40
2023-05-16T23:21:50.672Z,73.10
2023-05-16T23:26:59.543Z,71.80
2023-05-16T23:32:11.643Z,71.90
2023-05-16T23:37:10.487Z,73.60
2023-05-16T23:42:19.178Z,73.50
2023-05-16T23:47:28.400Z,72.60
2023-05-16T23:52:36.925Z,73.30
2023-05-16T23:57:45.768Z,73.50
